sensor_id;sensor_type;location;lat;lon;timestamp;P1;durP1;ratioP1;P2;durP2;ratioP2
4106;SDS011;21906;50.812;7.132;2024-03-06T00:01:50;36.03;;;20.53;;
4106;SDS011;21906;50.812;7.132;2024-03-06T00:04:16;34.03;;;21.13;;
4106;SDS011;21906;50.812;7.132;2024-03-06T00:06:42;34.20;;;20.80;;
4106;SDS011;21906;50.812;7.132;2024-03-06T00:09:07;32.40;;;20.57;;
4106;SDS011;21906;50.812;7.132;2024-03-06T00:11:33;30.80;;;20.90;;
4106;SDS011;21906;50.812;7.132;2024-03-06T00:14:03;31.83;;;20.13;;
4106;SDS011;21906;50.812;7.132;2024-03-06T00:16:30;34.80;;;21.20;;
4106;SDS011;21906;50.812;7.132;2024-03-06T00:18:59;32.50;;;20.57;;
4106;SDS011;21906;50.812;7.132;2024-03-06T00:21:25;31.43;;;20.17;;
4106;SDS011;21906;50.812;7.132;2024-03-06T00:23:50;30.57;;;20.00;;
4106;SDS011;21906;50.812;7.132;2024-03-06T00:26:16;34.00;;;19.80;;
4106;SDS011;21906;50.812;7.132;2024-03-06T00:28:42;31.93;;;20.17;;
4106;SDS011;21906;50.812;7.132;2024-03-06T00:31:07;32.17;;;19.80;;
4106;SDS011;21906;50.812;7.132;2024-03-06T00:33:33;30.07;;;19.70;;
4106;SDS011;21906;50.812;7.132;2024-03-06T00:35:59;32.87;;;20.37;;
4106;SDS011;21906;50.812;7.132;2024-03-06T00:38:24;34.47;;;20.30;;
4106;SDS011;21906;50.812;7.132;2024-03-06T00:40:50;30.27;;;19.60;;
4106;SDS011;21906;50.812;7.132;2024-03-06T00:43:16;30.67;;;20.27;;
4106;SDS011;21906;50.812;7.132;2024-03-06T00:45:42;32.40;;;19.93;;
4106;SDS011;21906;50.812;7.132;2024-03-06T00:48:07;30.07;;;19.97;;
4106;SDS011;21906;50.812;7.132;2024-03-06T00:50:33;32.20;;;19.60;;
4106;SDS011;21906;50.812;7.132;2024-03-06T00:52:59;29.17;;;19.63;;
4106;SDS011;21906;50.812;7.132;2024-03-06T00:55:24;30.40;;;18.83;;
4106;SDS011;21906;50.812;7.132;2024-03-06T00:57:50;30.47;;;20.63;;
4106;SDS011;21906;50.812;7.132;2024-03-06T01:00:16;29.47;;;20.03;;
4106;SDS011;21906;50.812;7.132;2024-03-06T01:02:42;30.33;;;19.10;;
4106;SDS011;21906;50.812;7.132;2024-03-06T01:05:08;29.47;;;19.50;;
4106;SDS011;21906;50.812;7.132;2024-03-06T01:07:34;31.37;;;19.17;;
4106;SDS011;21906;50.812;7.132;2024-03-06T01:10:03;30.90;;;19.97;;
4106;SDS011;21906;50.812;7.132;2024-03-06T01:12:31;31.47;;;19.70;;
4106;SDS011;21906;50.812;7.132;2024-03-06T01:14:57;35.30;;;19.50;;
4106;SDS011;21906;50.812;7.132;2024-03-06T01:17:23;32.90;;;20.23;;
4106;SDS011;21906;50.812;7.132;2024-03-06T01:19:49;28.00;;;18.13;;
4106;SDS011;21906;50.812;7.132;2024-03-06T01:22:15;31.80;;;20.27;;
4106;SDS011;21906;50.812;7.132;2024-03-06T01:24:41;31.47;;;19.90;;
4106;SDS011;21906;50.812;7.132;2024-03-06T01:27:06;28.00;;;18.50;;
4106;SDS011;21906;50.812;7.132;2024-03-06T01:29:33;28.27;;;18.93;;
4106;SDS011;21906;50.812;7.132;2024-03-06T01:31:58;31.00;;;19.77;;
4106;SDS011;21906;50.812;7.132;2024-03-06T01:34:25;31.40;;;18.93;;
4106;SDS011;21906;50.812;7.132;2024-03-06T01:36:52;29.37;;;19.07;;
4106;SDS011;21906;50.812;7.132;2024-03-06T01:39:18;28.57;;;19.03;;
4106;SDS011;21906;50.812;7.132;2024-03-06T01:41:47;28.43;;;18.70;;
4106;SDS011;21906;50.812;7.132;2024-03-06T01:44:16;27.57;;;17.60;;
4106;SDS011;21906;50.812;7.132;2024-03-06T01:46:44;24.50;;;16.90;;
4106;SDS011;21906;50.812;7.132;2024-03-06T01:49:12;26.67;;;18.17;;
4106;SDS011;21906;50.812;7.132;2024-03-06T01:51:45;27.70;;;17.07;;
4106;SDS011;21906;50.812;7.132;2024-03-06T01:54:15;30.03;;;18.80;;
4106;SDS011;21906;50.812;7.132;2024-03-06T01:56:44;28.43;;;18.13;;
4106;SDS011;21906;50.812;7.132;2024-03-06T01:59:15;31.03;;;19.80;;
4106;SDS011;21906;50.812;7.132;2024-03-06T02:01:43;28.87;;;18.07;;
4106;SDS011;21906;50.812;7.132;2024-03-06T02:04:10;28.00;;;17.60;;
4106;SDS011;21906;50.812;7.132;2024-03-06T02:06:40;29.93;;;17.57;;
4106;SDS011;21906;50.812;7.132;2024-03-06T02:09:07;26.73;;;16.90;;
4106;SDS011;21906;50.812;7.132;2024-03-06T02:11:34;33.37;;;20.50;;
4106;SDS011;21906;50.812;7.132;2024-03-06T02:14:01;27.17;;;17.93;;
4106;SDS011;21906;50.812;7.132;2024-03-06T02:16:27;30.93;;;19.30;;
4106;SDS011;21906;50.812;7.132;2024-03-06T02:18:53;29.60;;;18.60;;
4106;SDS011;21906;50.812;7.132;2024-03-06T02:21:20;29.83;;;18.93;;
4106;SDS011;21906;50.812;7.132;2024-03-06T02:23:47;25.97;;;17.73;;
4106;SDS011;21906;50.812;7.132;2024-03-06T02:26:13;26.17;;;17.33;;
4106;SDS011;21906;50.812;7.132;2024-03-06T02:28:39;28.00;;;18.20;;
4106;SDS011;21906;50.812;7.132;2024-03-06T02:31:11;27.07;;;17.50;;
4106;SDS011;21906;50.812;7.132;2024-03-06T02:33:36;28.50;;;17.00;;
4106;SDS011;21906;50.812;7.132;2024-03-06T02:36:02;25.67;;;17.30;;
4106;SDS011;21906;50.812;7.132;2024-03-06T02:38:28;26.20;;;17.00;;
4106;SDS011;21906;50.812;7.132;2024-03-06T02:40:53;26.10;;;17.07;;
4106;SDS011;21906;50.812;7.132;2024-03-06T02:43:19;25.70;;;16.30;;
4106;SDS011;21906;50.812;7.132;2024-03-06T02:45:45;25.53;;;16.73;;
4106;SDS011;21906;50.812;7.132;2024-03-06T02:48:10;23.30;;;15.67;;
4106;SDS011;21906;50.812;7.132;2024-03-06T02:50:36;24.63;;;16.07;;
4106;SDS011;21906;50.812;7.132;2024-03-06T02:53:02;27.57;;;16.77;;
4106;SDS011;21906;50.812;7.132;2024-03-06T02:55:27;23.93;;;16.57;;
4106;SDS011;21906;50.812;7.132;2024-03-06T02:57:53;26.37;;;17.40;;
4106;SDS011;21906;50.812;7.132;2024-03-06T03:00:19;27.33;;;16.70;;
4106;SDS011;21906;50.812;7.132;2024-03-06T03:02:45;25.27;;;16.77;;
4106;SDS011;21906;50.812;7.132;2024-03-06T03:05:11;24.60;;;15.50;;
4106;SDS011;21906;50.812;7.132;2024-03-06T03:07:36;24.97;;;16.50;;
4106;SDS011;21906;50.812;7.132;2024-03-06T03:10:02;23.07;;;15.27;;
4106;SDS011;21906;50.812;7.132;2024-03-06T03:12:29;22.00;;;15.80;;
4106;SDS011;21906;50.812;7.132;2024-03-06T03:14:55;21.97;;;14.67;;
4106;SDS011;21906;50.812;7.132;2024-03-06T03:17:21;25.13;;;15.23;;
4106;SDS011;21906;50.812;7.132;2024-03-06T03:19:47;17.20;;;12.60;;
4106;SDS011;21906;50.812;7.132;2024-03-06T03:22:12;24.53;;;16.47;;
4106;SDS011;21906;50.812;7.132;2024-03-06T03:24:38;23.57;;;14.93;;
4106;SDS011;21906;50.812;7.132;2024-03-06T03:27:06;23.77;;;15.13;;
4106;SDS011;21906;50.812;7.132;2024-03-06T03:29:32;18.17;;;13.40;;
4106;SDS011;21906;50.812;7.132;2024-03-06T03:31:58;22.30;;;15.03;;
4106;SDS011;21906;50.812;7.132;2024-03-06T03:34:24;20.20;;;15.00;;
4106;SDS011;21906;50.812;7.132;2024-03-06T03:36:49;23.97;;;14.97;;
4106;SDS011;21906;50.812;7.132;2024-03-06T03:39:15;21.20;;;14.97;;
4106;SDS011;21906;50.812;7.132;2024-03-06T03:41:44;20.63;;;14.30;;
4106;SDS011;21906;50.812;7.132;2024-03-06T03:44:11;16.93;;;12.37;;
4106;SDS011;21906;50.812;7.132;2024-03-06T03:46:40;17.47;;;12.80;;
4106;SDS011;21906;50.812;7.132;2024-03-06T03:49:06;19.27;;;12.67;;
4106;SDS011;21906;50.812;7.132;2024-03-06T03:51:33;20.50;;;14.43;;
4106;SDS011;21906;50.812;7.132;2024-03-06T03:53:59;19.50;;;14.50;;
4106;SDS011;21906;50.812;7.132;2024-03-06T03:56:25;21.93;;;15.13;;
4106;SDS011;21906;50.812;7.132;2024-03-06T03:58:51;23.23;;;15.60;;
4106;SDS011;21906;50.812;7.132;2024-03-06T04:01:17;25.20;;;16.23;;
4106;SDS011;21906;50.812;7.132;2024-03-06T04:03:43;22.37;;;15.33;;
4106;SDS011;21906;50.812;7.132;2024-03-06T04:06:09;26.53;;;16.67;;
4106;SDS011;21906;50.812;7.132;2024-03-06T04:08:35;22.20;;;14.80;;
4106;SDS011;21906;50.812;7.132;2024-03-06T04:11:02;23.63;;;14.90;;
4106;SDS011;21906;50.812;7.132;2024-03-06T04:13:29;22.53;;;15.40;;
4106;SDS011;21906;50.812;7.132;2024-03-06T04:15:55;24.73;;;15.67;;
4106;SDS011;21906;50.812;7.132;2024-03-06T04:18:21;21.93;;;14.10;;
4106;SDS011;21906;50.812;7.132;2024-03-06T04:20:47;23.73;;;14.60;;
4106;SDS011;21906;50.812;7.132;2024-03-06T04:23:12;24.43;;;15.30;;
4106;SDS011;21906;50.812;7.132;2024-03-06T04:25:38;22.90;;;14.23;;
4106;SDS011;21906;50.812;7.132;2024-03-06T04:28:04;24.67;;;14.70;;
4106;SDS011;21906;50.812;7.132;2024-03-06T04:30:32;24.20;;;15.97;;
4106;SDS011;21906;50.812;7.132;2024-03-06T04:32:58;28.20;;;16.73;;
4106;SDS011;21906;50.812;7.132;2024-03-06T04:35:24;27.40;;;17.03;;
4106;SDS011;21906;50.812;7.132;2024-03-06T04:37:50;22.80;;;15.17;;
4106;SDS011;21906;50.812;7.132;2024-03-06T04:40:15;20.47;;;14.37;;
4106;SDS011;21906;50.812;7.132;2024-03-06T04:42:45;23.70;;;14.40;;
4106;SDS011;21906;50.812;7.132;2024-03-06T04:45:14;20.57;;;13.97;;
4106;SDS011;21906;50.812;7.132;2024-03-06T04:47:41;18.43;;;13.07;;
4106;SDS011;21906;50.812;7.132;2024-03-06T04:50:10;24.40;;;14.60;;
4106;SDS011;21906;50.812;7.132;2024-03-06T04:59:00;18.53;;;13.13;;
4106;SDS011;21906;50.812;7.132;2024-03-06T05:05:13;20.00;;;13.30;;
4106;SDS011;21906;50.812;7.132;2024-03-06T05:08:33;18.67;;;13.30;;
4106;SDS011;21906;50.812;7.132;2024-03-06T05:11:36;18.87;;;12.90;;
4106;SDS011;21906;50.812;7.132;2024-03-06T05:14:28;18.50;;;12.60;;
4106;SDS011;21906;50.812;7.132;2024-03-06T05:17:10;17.50;;;12.87;;
4106;SDS011;21906;50.812;7.132;2024-03-06T05:19:43;18.37;;;13.43;;
4106;SDS011;21906;50.812;7.132;2024-03-06T05:22:41;17.33;;;13.43;;
4106;SDS011;21906;50.812;7.132;2024-03-06T05:28:29;19.97;;;14.23;;
4106;SDS011;21906;50.812;7.132;2024-03-06T05:31:13;18.77;;;13.20;;
4106;SDS011;21906;50.812;7.132;2024-03-06T05:34:00;20.00;;;13.27;;
4106;SDS011;21906;50.812;7.132;2024-03-06T05:42:37;20.77;;;13.33;;
4106;SDS011;21906;50.812;7.132;2024-03-06T05:45:32;22.00;;;14.07;;
4106;SDS011;21906;50.812;7.132;2024-03-06T05:48:13;20.70;;;14.43;;
4106;SDS011;21906;50.812;7.132;2024-03-06T05:51:03;19.60;;;13.00;;
4106;SDS011;21906;50.812;7.132;2024-03-06T05:53:41;20.33;;;13.80;;
4106;SDS011;21906;50.812;7.132;2024-03-06T05:56:40;19.00;;;12.77;;
4106;SDS011;21906;50.812;7.132;2024-03-06T05:59:27;21.50;;;14.20;;
4106;SDS011;21906;50.812;7.132;2024-03-06T06:02:10;20.30;;;14.50;;
4106;SDS011;21906;50.812;7.132;2024-03-06T06:04:53;20.40;;;13.37;;
4106;SDS011;21906;50.812;7.132;2024-03-06T06:07:35;21.13;;;13.00;;
4106;SDS011;21906;50.812;7.132;2024-03-06T06:10:14;20.40;;;12.43;;
4106;SDS011;21906;50.812;7.132;2024-03-06T06:16:10;18.10;;;13.13;;
4106;SDS011;21906;50.812;7.132;2024-03-06T06:18:50;21.07;;;13.60;;
4106;SDS011;21906;50.812;7.132;2024-03-06T06:21:38;20.93;;;13.30;;
4106;SDS011;21906;50.812;7.132;2024-03-06T06:24:34;16.67;;;12.10;;
4106;SDS011;21906;50.812;7.132;2024-03-06T06:27:24;14.73;;;10.00;;
4106;SDS011;21906;50.812;7.132;2024-03-06T06:30:10;12.50;;;8.40;;
4106;SDS011;21906;50.812;7.132;2024-03-06T06:32:44;11.50;;;8.27;;
4106;SDS011;21906;50.812;7.132;2024-03-06T06:35:10;14.00;;;9.10;;
4106;SDS011;21906;50.812;7.132;2024-03-06T06:37:39;13.20;;;8.43;;
4106;SDS011;21906;50.812;7.132;2024-03-06T06:40:07;13.33;;;9.23;;
4106;SDS011;21906;50.812;7.132;2024-03-06T06:42:36;10.40;;;7.97;;
4106;SDS011;21906;50.812;7.132;2024-03-06T06:45:02;15.27;;;9.23;;
4106;SDS011;21906;50.812;7.132;2024-03-06T06:47:28;13.13;;;9.10;;
4106;SDS011;21906;50.812;7.132;2024-03-06T06:49:54;13.97;;;9.40;;
4106;SDS011;21906;50.812;7.132;2024-03-06T06:52:19;14.83;;;10.40;;
4106;SDS011;21906;50.812;7.132;2024-03-06T06:54:48;13.77;;;10.00;;
4106;SDS011;21906;50.812;7.132;2024-03-06T06:57:16;14.30;;;11.17;;
4106;SDS011;21906;50.812;7.132;2024-03-06T06:59:41;17.03;;;11.70;;
4106;SDS011;21906;50.812;7.132;2024-03-06T07:02:07;13.23;;;9.50;;
4106;SDS011;21906;50.812;7.132;2024-03-06T07:04:33;13.17;;;10.20;;
4106;SDS011;21906;50.812;7.132;2024-03-06T07:06:59;15.53;;;10.30;;
4106;SDS011;21906;50.812;7.132;2024-03-06T07:09:25;14.40;;;10.07;;
4106;SDS011;21906;50.812;7.132;2024-03-06T07:11:54;14.83;;;10.83;;
4106;SDS011;21906;50.812;7.132;2024-03-06T07:14:20;15.77;;;11.20;;
4106;SDS011;21906;50.812;7.132;2024-03-06T07:16:46;14.83;;;10.37;;
4106;SDS011;21906;50.812;7.132;2024-03-06T07:19:12;14.93;;;10.70;;
4106;SDS011;21906;50.812;7.132;2024-03-06T07:21:38;13.50;;;10.07;;
4106;SDS011;21906;50.812;7.132;2024-03-06T07:24:04;15.10;;;9.80;;
4106;SDS011;21906;50.812;7.132;2024-03-06T07:26:33;12.47;;;9.90;;
4106;SDS011;21906;50.812;7.132;2024-03-06T07:29:00;14.70;;;10.17;;
4106;SDS011;21906;50.812;7.132;2024-03-06T07:31:26;11.80;;;9.70;;
4106;SDS011;21906;50.812;7.132;2024-03-06T07:33:51;13.23;;;10.23;;
4106;SDS011;21906;50.812;7.132;2024-03-06T07:36:18;15.20;;;11.27;;
4106;SDS011;21906;50.812;7.132;2024-03-06T07:38:44;12.77;;;10.30;;
4106;SDS011;21906;50.812;7.132;2024-03-06T07:41:10;11.90;;;9.20;;
4106;SDS011;21906;50.812;7.132;2024-03-06T07:43:36;11.23;;;8.43;;
4106;SDS011;21906;50.812;7.132;2024-03-06T07:46:03;11.97;;;9.50;;
4106;SDS011;21906;50.812;7.132;2024-03-06T07:48:35;10.63;;;9.03;;
4106;SDS011;21906;50.812;7.132;2024-03-06T07:51:07;11.77;;;9.63;;
4106;SDS011;21906;50.812;7.132;2024-03-06T07:53:33;15.90;;;9.57;;
4106;SDS011;21906;50.812;7.132;2024-03-06T07:55:58;12.37;;;9.33;;
4106;SDS011;21906;50.812;7.132;2024-03-06T07:58:24;12.07;;;9.53;;
4106;SDS011;21906;50.812;7.132;2024-03-06T08:00:50;13.47;;;9.93;;
4106;SDS011;21906;50.812;7.132;2024-03-06T08:03:21;12.27;;;9.60;;
4106;SDS011;21906;50.812;7.132;2024-03-06T08:05:50;14.13;;;9.83;;
4106;SDS011;21906;50.812;7.132;2024-03-06T08:08:20;12.37;;;9.70;;
4106;SDS011;21906;50.812;7.132;2024-03-06T08:10:46;14.50;;;9.97;;
4106;SDS011;21906;50.812;7.132;2024-03-06T08:13:13;13.60;;;10.40;;
4106;SDS011;21906;50.812;7.132;2024-03-06T08:15:39;12.83;;;9.40;;
4106;SDS011;21906;50.812;7.132;2024-03-06T08:18:05;13.50;;;10.17;;
4106;SDS011;21906;50.812;7.132;2024-03-06T08:20:31;13.20;;;9.40;;
4106;SDS011;21906;50.812;7.132;2024-03-06T08:22:58;12.67;;;9.90;;
4106;SDS011;21906;50.812;7.132;2024-03-06T08:25:24;15.10;;;10.63;;
4106;SDS011;21906;50.812;7.132;2024-03-06T08:27:49;16.37;;;11.13;;
4106;SDS011;21906;50.812;7.132;2024-03-06T08:30:15;12.77;;;10.13;;
4106;SDS011;21906;50.812;7.132;2024-03-06T08:32:41;11.03;;;9.43;;
4106;SDS011;21906;50.812;7.132;2024-03-06T08:35:09;12.47;;;10.10;;
4106;SDS011;21906;50.812;7.132;2024-03-06T08:37:40;10.90;;;8.97;;
4106;SDS011;21906;50.812;7.132;2024-03-06T08:40:07;11.47;;;9.50;;
4106;SDS011;21906;50.812;7.132;2024-03-06T08:42:35;13.63;;;9.73;;
4106;SDS011;21906;50.812;7.132;2024-03-06T08:45:01;12.97;;;10.27;;
4106;SDS011;21906;50.812;7.132;2024-03-06T08:47:27;11.43;;;9.00;;
4106;SDS011;21906;50.812;7.132;2024-03-06T08:49:53;9.93;;;8.93;;
4106;SDS011;21906;50.812;7.132;2024-03-06T08:52:19;11.00;;;8.70;;
4106;SDS011;21906;50.812;7.132;2024-03-06T08:54:46;11.13;;;8.73;;
4106;SDS011;21906;50.812;7.132;2024-03-06T08:57:12;10.80;;;8.73;;
4106;SDS011;21906;50.812;7.132;2024-03-06T08:59:38;9.40;;;8.40;;
4106;SDS011;21906;50.812;7.132;2024-03-06T09:02:13;11.13;;;8.50;;
4106;SDS011;21906;50.812;7.132;2024-03-06T09:04:40;10.27;;;9.17;;
4106;SDS011;21906;50.812;7.132;2024-03-06T09:07:09;12.63;;;9.57;;
4106;SDS011;21906;50.812;7.132;2024-03-06T09:09:35;9.20;;;8.30;;
4106;SDS011;21906;50.812;7.132;2024-03-06T09:12:05;9.50;;;7.80;;
4106;SDS011;21906;50.812;7.132;2024-03-06T09:14:32;8.70;;;7.47;;
4106;SDS011;21906;50.812;7.132;2024-03-06T09:16:58;10.17;;;8.10;;
4106;SDS011;21906;50.812;7.132;2024-03-06T09:19:24;9.17;;;8.20;;
4106;SDS011;21906;50.812;7.132;2024-03-06T09:21:50;9.40;;;8.30;;
4106;SDS011;21906;50.812;7.132;2024-03-06T09:24:15;9.80;;;7.93;;
4106;SDS011;21906;50.812;7.132;2024-03-06T09:26:41;10.87;;;9.27;;
4106;SDS011;21906;50.812;7.132;2024-03-06T09:29:08;9.50;;;8.33;;
4106;SDS011;21906;50.812;7.132;2024-03-06T09:31:35;10.40;;;8.23;;
4106;SDS011;21906;50.812;7.132;2024-03-06T09:34:02;10.07;;;7.47;;
4106;SDS011;21906;50.812;7.132;2024-03-06T09:36:28;8.40;;;7.40;;
4106;SDS011;21906;50.812;7.132;2024-03-06T09:38:53;8.10;;;7.30;;
4106;SDS011;21906;50.812;7.132;2024-03-06T09:41:21;6.83;;;6.13;;
4106;SDS011;21906;50.812;7.132;2024-03-06T09:43:49;6.50;;;5.93;;
4106;SDS011;21906;50.812;7.132;2024-03-06T09:46:15;8.13;;;7.00;;
4106;SDS011;21906;50.812;7.132;2024-03-06T09:48:46;14.53;;;7.10;;
4106;SDS011;21906;50.812;7.132;2024-03-06T09:51:14;6.90;;;6.17;;
4106;SDS011;21906;50.812;7.132;2024-03-06T09:53:40;6.50;;;5.90;;
4106;SDS011;21906;50.812;7.132;2024-03-06T09:56:09;8.13;;;7.43;;
4106;SDS011;21906;50.812;7.132;2024-03-06T09:58:35;7.03;;;6.33;;
4106;SDS011;21906;50.812;7.132;2024-03-06T10:01:01;11.30;;;7.60;;
4106;SDS011;21906;50.812;7.132;2024-03-06T10:03:29;7.70;;;7.00;;
4106;SDS011;21906;50.812;7.132;2024-03-06T10:05:55;6.27;;;5.73;;
4106;SDS011;21906;50.812;7.132;2024-03-06T10:08:21;5.60;;;5.10;;
4106;SDS011;21906;50.812;7.132;2024-03-06T10:10:50;5.80;;;5.30;;
4106;SDS011;21906;50.812;7.132;2024-03-06T10:13:16;6.33;;;5.50;;
4106;SDS011;21906;50.812;7.132;2024-03-06T10:15:42;6.03;;;5.53;;
4106;SDS011;21906;50.812;7.132;2024-03-06T10:18:28;7.10;;;5.90;;
4106;SDS011;21906;50.812;7.132;2024-03-06T10:20:57;6.10;;;5.57;;
4106;SDS011;21906;50.812;7.132;2024-03-06T10:23:23;5.77;;;5.23;;
4106;SDS011;21906;50.812;7.132;2024-03-06T10:25:50;6.27;;;5.77;;
4106;SDS011;21906;50.812;7.132;2024-03-06T10:28:17;6.33;;;5.80;;
4106;SDS011;21906;50.812;7.132;2024-03-06T10:30:47;7.50;;;5.13;;
4106;SDS011;21906;50.812;7.132;2024-03-06T10:33:14;6.57;;;5.37;;
4106;SDS011;21906;50.812;7.132;2024-03-06T10:35:42;5.80;;;5.30;;
4106;SDS011;21906;50.812;7.132;2024-03-06T10:38:09;7.00;;;5.27;;
4106;SDS011;21906;50.812;7.132;2024-03-06T10:40:39;6.20;;;5.70;;
4106;SDS011;21906;50.812;7.132;2024-03-06T10:43:06;7.00;;;6.30;;
4106;SDS011;21906;50.812;7.132;2024-03-06T10:48:15;7.70;;;7.00;;
4106;SDS011;21906;50.812;7.132;2024-03-06T10:50:44;9.57;;;7.60;;
4106;SDS011;21906;50.812;7.132;2024-03-06T10:53:15;9.73;;;8.40;;
4106;SDS011;21906;50.812;7.132;2024-03-06T10:55:43;8.80;;;7.73;;
4106;SDS011;21906;50.812;7.132;2024-03-06T10:58:09;8.03;;;7.10;;
4106;SDS011;21906;50.812;7.132;2024-03-06T11:00:39;8.60;;;7.27;;
4106;SDS011;21906;50.812;7.132;2024-03-06T11:03:06;9.50;;;6.70;;
4106;SDS011;21906;50.812;7.132;2024-03-06T11:05:36;8.27;;;7.33;;
4106;SDS011;21906;50.812;7.132;2024-03-06T11:08:11;8.97;;;7.73;;
4106;SDS011;21906;50.812;7.132;2024-03-06T11:10:39;11.30;;;8.60;;
4106;SDS011;21906;50.812;7.132;2024-03-06T11:13:30;9.43;;;8.13;;
4106;SDS011;21906;50.812;7.132;2024-03-06T11:15:58;8.27;;;7.47;;
4106;SDS011;21906;50.812;7.132;2024-03-06T11:23:33;12.07;;;10.70;;
4106;SDS011;21906;50.812;7.132;2024-03-06T11:26:02;12.80;;;10.70;;
4106;SDS011;21906;50.812;7.132;2024-03-06T11:36:27;10.70;;;9.60;;
4106;SDS011;21906;50.812;7.132;2024-03-06T11:39:02;11.80;;;10.60;;
4106;SDS011;21906;50.812;7.132;2024-03-06T11:44:05;13.10;;;11.70;;
4106;SDS011;21906;50.812;7.132;2024-03-06T11:46:44;11.77;;;10.30;;
4106;SDS011;21906;50.812;7.132;2024-03-06T11:51:46;13.87;;;10.90;;
4106;SDS011;21906;50.812;7.132;2024-03-06T11:54:13;11.20;;;9.67;;
4106;SDS011;21906;50.812;7.132;2024-03-06T11:56:40;17.00;;;11.80;;
4106;SDS011;21906;50.812;7.132;2024-03-06T11:59:06;10.90;;;9.80;;
4106;SDS011;21906;50.812;7.132;2024-03-06T12:01:33;10.87;;;9.80;;
4106;SDS011;21906;50.812;7.132;2024-03-06T12:04:00;13.53;;;10.70;;
4106;SDS011;21906;50.812;7.132;2024-03-06T12:06:27;14.87;;;11.47;;
4106;SDS011;21906;50.812;7.132;2024-03-06T12:08:53;13.33;;;10.87;;
4106;SDS011;21906;50.812;7.132;2024-03-06T12:11:19;17.30;;;12.30;;
4106;SDS011;21906;50.812;7.132;2024-03-06T12:13:47;14.67;;;11.97;;
4106;SDS011;21906;50.812;7.132;2024-03-06T12:16:14;16.30;;;12.50;;
4106;SDS011;21906;50.812;7.132;2024-03-06T12:18:39;16.60;;;12.33;;
4106;SDS011;21906;50.812;7.132;2024-03-06T12:21:06;14.70;;;12.67;;
4106;SDS011;21906;50.812;7.132;2024-03-06T12:23:32;15.10;;;12.03;;
4106;SDS011;21906;50.812;7.132;2024-03-06T12:26:02;13.13;;;10.27;;
4106;SDS011;21906;50.812;7.132;2024-03-06T12:28:34;14.13;;;10.70;;
4106;SDS011;21906;50.812;7.132;2024-03-06T12:31:03;11.17;;;9.50;;
4106;SDS011;21906;50.812;7.132;2024-03-06T12:33:29;12.00;;;10.53;;
4106;SDS011;21906;50.812;7.132;2024-03-06T12:36:02;10.77;;;9.10;;
4106;SDS011;21906;50.812;7.132;2024-03-06T12:38:35;11.70;;;9.57;;
4106;SDS011;21906;50.812;7.132;2024-03-06T12:41:02;9.80;;;8.80;;
4106;SDS011;21906;50.812;7.132;2024-03-06T12:43:28;9.57;;;8.57;;
4106;SDS011;21906;50.812;7.132;2024-03-06T12:45:54;10.87;;;8.77;;
4106;SDS011;21906;50.812;7.132;2024-03-06T12:48:21;8.63;;;7.53;;
4106;SDS011;21906;50.812;7.132;2024-03-06T12:50:47;8.10;;;7.30;;
4106;SDS011;21906;50.812;7.132;2024-03-06T12:53:20;8.67;;;7.20;;
4106;SDS011;21906;50.812;7.132;2024-03-06T12:55:47;8.43;;;7.63;;
4106;SDS011;21906;50.812;7.132;2024-03-06T12:58:13;8.23;;;7.53;;
4106;SDS011;21906;50.812;7.132;2024-03-06T13:00:40;8.80;;;7.50;;
4106;SDS011;21906;50.812;7.132;2024-03-06T13:03:06;9.40;;;7.53;;
4106;SDS011;21906;50.812;7.132;2024-03-06T13:05:32;8.37;;;7.57;;
4106;SDS011;21906;50.812;7.132;2024-03-06T13:07:58;7.63;;;6.93;;
4106;SDS011;21906;50.812;7.132;2024-03-06T13:10:25;8.63;;;7.87;;
4106;SDS011;21906;50.812;7.132;2024-03-06T13:12:50;7.33;;;6.63;;
4106;SDS011;21906;50.812;7.132;2024-03-06T13:15:17;7.17;;;6.50;;
4106;SDS011;21906;50.812;7.132;2024-03-06T13:17:43;7.00;;;6.50;;
4106;SDS011;21906;50.812;7.132;2024-03-06T13:20:09;6.73;;;6.23;;
4106;SDS011;21906;50.812;7.132;2024-03-06T13:22:37;7.83;;;7.17;;
4106;SDS011;21906;50.812;7.132;2024-03-06T13:25:03;7.63;;;7.03;;
4106;SDS011;21906;50.812;7.132;2024-03-06T13:27:30;7.53;;;6.83;;
4106;SDS011;21906;50.812;7.132;2024-03-06T13:29:56;7.57;;;6.97;;
4106;SDS011;21906;50.812;7.132;2024-03-06T13:32:22;8.30;;;7.50;;
4106;SDS011;21906;50.812;7.132;2024-03-06T13:34:48;8.13;;;7.43;;
4106;SDS011;21906;50.812;7.132;2024-03-06T13:37:14;8.93;;;8.20;;
4106;SDS011;21906;50.812;7.132;2024-03-06T13:39:41;7.83;;;7.03;;
4106;SDS011;21906;50.812;7.132;2024-03-06T13:42:06;8.63;;;7.90;;
4106;SDS011;21906;50.812;7.132;2024-03-06T13:44:33;7.40;;;6.63;;
4106;SDS011;21906;50.812;7.132;2024-03-06T13:47:03;9.20;;;7.97;;
4106;SDS011;21906;50.812;7.132;2024-03-06T13:49:36;8.97;;;7.97;;
4106;SDS011;21906;50.812;7.132;2024-03-06T13:52:06;8.20;;;7.50;;
4106;SDS011;21906;50.812;7.132;2024-03-06T13:54:38;8.40;;;7.60;;
4106;SDS011;21906;50.812;7.132;2024-03-06T13:57:05;7.83;;;7.07;;
4106;SDS011;21906;50.812;7.132;2024-03-06T13:59:32;7.97;;;7.20;;
4106;SDS011;21906;50.812;7.132;2024-03-06T14:01:59;7.10;;;6.40;;
4106;SDS011;21906;50.812;7.132;2024-03-06T14:04:26;7.63;;;6.90;;
4106;SDS011;21906;50.812;7.132;2024-03-06T14:06:52;6.77;;;6.27;;
4106;SDS011;21906;50.812;7.132;2024-03-06T14:09:18;6.60;;;5.93;;
4106;SDS011;21906;50.812;7.132;2024-03-06T14:11:44;8.13;;;7.43;;
4106;SDS011;21906;50.812;7.132;2024-03-06T14:14:10;7.40;;;6.87;;
4106;SDS011;21906;50.812;7.132;2024-03-06T14:16:39;7.07;;;6.37;;
4106;SDS011;21906;50.812;7.132;2024-03-06T14:19:05;7.43;;;6.80;;
4106;SDS011;21906;50.812;7.132;2024-03-06T14:21:31;7.73;;;7.03;;
4106;SDS011;21906;50.812;7.132;2024-03-06T14:23:58;6.57;;;6.07;;
4106;SDS011;21906;50.812;7.132;2024-03-06T14:26:24;6.60;;;6.10;;
4106;SDS011;21906;50.812;7.132;2024-03-06T14:28:51;7.60;;;7.00;;
4106;SDS011;21906;50.812;7.132;2024-03-06T14:31:17;6.20;;;5.70;;
4106;SDS011;21906;50.812;7.132;2024-03-06T14:33:43;6.90;;;6.30;;
4106;SDS011;21906;50.812;7.132;2024-03-06T14:36:08;7.37;;;6.40;;
4106;SDS011;21906;50.812;7.132;2024-03-06T14:38:34;5.90;;;5.40;;
4106;SDS011;21906;50.812;7.132;2024-03-06T14:41:00;6.77;;;6.17;;
4106;SDS011;21906;50.812;7.132;2024-03-06T14:43:31;6.40;;;5.90;;
4106;SDS011;21906;50.812;7.132;2024-03-06T14:45:59;6.90;;;6.30;;
4106;SDS011;21906;50.812;7.132;2024-03-06T14:48:25;6.60;;;5.90;;
4106;SDS011;21906;50.812;7.132;2024-03-06T14:50:51;6.00;;;5.60;;
4106;SDS011;21906;50.812;7.132;2024-03-06T14:53:17;6.30;;;5.80;;
4106;SDS011;21906;50.812;7.132;2024-03-06T14:55:43;6.00;;;5.60;;
4106;SDS011;21906;50.812;7.132;2024-03-06T14:58:09;5.83;;;5.33;;
4106;SDS011;21906;50.812;7.132;2024-03-06T15:00:34;5.80;;;5.30;;
4106;SDS011;21906;50.812;7.132;2024-03-06T15:03:00;5.93;;;5.50;;
4106;SDS011;21906;50.812;7.132;2024-03-06T15:05:26;5.07;;;4.67;;
4106;SDS011;21906;50.812;7.132;2024-03-06T15:07:53;4.90;;;4.50;;
4106;SDS011;21906;50.812;7.132;2024-03-06T15:10:19;5.20;;;4.70;;
4106;SDS011;21906;50.812;7.132;2024-03-06T15:12:45;5.60;;;5.30;;
4106;SDS011;21906;50.812;7.132;2024-03-06T15:15:11;5.23;;;4.83;;
4106;SDS011;21906;50.812;7.132;2024-03-06T15:17:37;4.90;;;4.60;;
4106;SDS011;21906;50.812;7.132;2024-03-06T15:20:07;4.70;;;4.30;;
4106;SDS011;21906;50.812;7.132;2024-03-06T15:22:36;4.40;;;4.13;;
4106;SDS011;21906;50.812;7.132;2024-03-06T15:25:15;4.27;;;3.97;;
4106;SDS011;21906;50.812;7.132;2024-03-06T15:27:43;4.73;;;4.40;;
4106;SDS011;21906;50.812;7.132;2024-03-06T15:30:09;4.70;;;4.40;;
4106;SDS011;21906;50.812;7.132;2024-03-06T15:32:39;3.80;;;3.50;;
4106;SDS011;21906;50.812;7.132;2024-03-06T15:35:05;3.10;;;2.90;;
4106;SDS011;21906;50.812;7.132;2024-03-06T15:37:31;3.37;;;3.17;;